createdAt,value
2023-04-29T00:01:05.230Z,1.45
2023-04-29T00:03:32.122Z,1.46
2023-04-29T00:05:59.684Z,1.56
2023-04-29T00:08:27.141Z,1.67
2023-04-29T00:10:53.946Z,1.54
2023-04-29T00:13:20.548Z,1.61
2023-04-29T00:15:47.071Z,1.64
2023-04-29T00:18:13.586Z,1.52
2023-04-29T00:20:40.160Z,1.57
2023-04-29T00:23:06.639Z,1.93
2023-04-29T00:25:33.153Z,1.76
2023-04-29T00:27:59.650Z,1.75
2023-04-29T00:30:26.171Z,1.56
2023-04-29T00:32:52.682Z,1.42
2023-04-29T00:35:19.223Z,1.44
2023-04-29T00:37:45.782Z,1.62
2023-04-29T00:40:12.361Z,1.57
2023-04-29T00:42:39.149Z,1.62
2023-04-29T00:45:08.117Z,1.60
2023-04-29T00:47:34.789Z,1.70
2023-04-29T00:50:01.361Z,1.97
2023-04-29T00:52:30.917Z,1.84
2023-04-29T00:54:58.091Z,1.93
2023-04-29T00:57:24.666Z,1.88
2023-04-29T00:59:52.342Z,1.62
2023-04-29T01:02:19.320Z,1.74
2023-04-29T01:04:45.932Z,1.76
2023-04-29T01:07:18.036Z,1.79
2023-04-29T01:10:04.321Z,1.54
2023-04-29T01:12:53.847Z,1.73
2023-04-29T01:15:33.293Z,1.54
2023-04-29T01:18:06.160Z,1.41
2023-04-29T01:20:33.181Z,1.55
2023-04-29T01:22:59.719Z,1.62
2023-04-29T01:25:26.819Z,1.73
2023-04-29T01:28:11.663Z,1.80
2023-04-29T01:31:06.899Z,2.12
2023-04-29T01:33:47.510Z,2.68
2023-04-29T01:36:42.707Z,3.30
2023-04-29T01:39:14.599Z,3.21
2023-04-29T01:42:05.343Z,2.22
2023-04-29T01:44:34.858Z,2.46
2023-04-29T01:47:02.162Z,2.39
2023-04-29T01:49:29.277Z,2.47
2023-04-29T01:51:55.828Z,2.32
2023-04-29T01:54:22.642Z,2.50
2023-04-29T01:56:49.188Z,2.40
2023-04-29T01:59:15.706Z,2.57
2023-04-29T02:01:42.194Z,2.46
2023-04-29T02:04:08.756Z,2.72
2023-04-29T02:06:35.294Z,2.36
2023-04-29T02:09:01.793Z,2.10
2023-04-29T02:11:28.393Z,1.78
2023-04-29T02:13:54.900Z,1.58
2023-04-29T02:16:21.405Z,1.42
2023-04-29T02:18:47.908Z,1.38
2023-04-29T02:21:17.024Z,1.47
2023-04-29T02:23:43.562Z,1.50
2023-04-29T02:26:10.062Z,1.51
2023-04-29T02:28:36.563Z,1.53
2023-04-29T02:31:03.093Z,1.66
2023-04-29T02:33:29.556Z,1.61
2023-04-29T02:35:56.013Z,1.48
2023-04-29T02:38:22.574Z,1.42
2023-04-29T02:40:49.072Z,1.45
2023-04-29T02:43:15.532Z,1.39
2023-04-29T02:45:41.998Z,1.39
2023-04-29T02:48:08.686Z,1.30
2023-04-29T02:50:35.198Z,1.36
2023-04-29T02:53:01.652Z,1.28
2023-04-29T02:55:28.178Z,1.28
2023-04-29T02:57:54.635Z,1.32
2023-04-29T03:00:21.083Z,1.19
2023-04-29T03:02:47.895Z,1.28
2023-04-29T03:05:14.430Z,1.30
2023-04-29T03:07:40.926Z,1.30
2023-04-29T03:10:08.184Z,1.38
2023-04-29T03:12:34.752Z,1.37
2023-04-29T03:15:01.251Z,1.34
2023-04-29T03:17:27.807Z,1.46
2023-04-29T03:19:54.542Z,1.57
2023-04-29T03:22:21.135Z,1.54
2023-04-29T03:24:47.585Z,1.65
2023-04-29T03:27:14.130Z,1.70
2023-04-29T03:29:40.650Z,1.97
2023-04-29T03:32:07.379Z,1.68
2023-04-29T03:34:33.862Z,1.93
2023-04-29T03:37:00.402Z,1.73
2023-04-29T03:39:26.875Z,1.53
2023-04-29T03:41:53.362Z,1.42
2023-04-29T03:44:19.830Z,1.46
2023-04-29T03:46:46.331Z,1.47
2023-04-29T03:49:12.832Z,1.26
2023-04-29T03:51:39.357Z,1.27
2023-04-29T03:54:05.839Z,1.14
2023-04-29T03:56:32.305Z,1.06
2023-04-29T03:58:58.786Z,1.28
2023-04-29T04:01:25.277Z,1.29
2023-04-29T04:03:51.858Z,1.20
2023-04-29T04:06:18.581Z,1.11
2023-04-29T04:08:45.064Z,1.26
2023-04-29T04:11:11.542Z,1.17
2023-04-29T04:13:37.990Z,1.11
2023-04-29T04:16:04.932Z,1.13
2023-04-29T04:18:31.468Z,1.16
2023-04-29T04:20:57.948Z,1.35
2023-04-29T04:23:27.043Z,1.33
2023-04-29T04:25:53.525Z,1.34
2023-04-29T04:28:19.970Z,1.16
2023-04-29T04:30:46.549Z,1.12
2023-04-29T04:33:13.046Z,0.97
2023-04-29T04:35:39.514Z,0.95
2023-04-29T04:38:05.949Z,1.10
2023-04-29T04:40:32.491Z,1.17
2023-04-29T04:42:58.975Z,1.01
2023-04-29T04:45:25.487Z,1.03
2023-04-29T04:47:51.973Z,0.98
2023-04-29T04:50:18.491Z,0.83
2023-04-29T04:52:44.964Z,0.81
2023-04-29T04:55:12.742Z,0.87
2023-04-29T04:57:41.062Z,0.96
2023-04-29T05:00:08.070Z,0.96
2023-04-29T05:02:34.682Z,0.83
2023-04-29T05:05:01.303Z,0.92
2023-04-29T05:07:27.759Z,0.91
2023-04-29T05:09:54.436Z,0.97
2023-04-29T05:12:21.030Z,0.92
2023-04-29T05:14:47.559Z,0.97
2023-04-29T05:17:14.026Z,1.05
2023-04-29T05:19:40.464Z,0.84
2023-04-29T05:22:06.955Z,0.88
2023-04-29T05:24:33.415Z,0.82
2023-04-29T05:26:59.880Z,0.91
2023-04-29T05:29:26.359Z,0.92
2023-04-29T05:31:53.111Z,1.06
2023-04-29T05:34:19.624Z,0.99
2023-04-29T05:36:46.126Z,1.13
2023-04-29T05:39:12.614Z,0.94
2023-04-29T05:41:39.117Z,0.88
2023-04-29T05:44:05.770Z,0.88
2023-04-29T05:46:32.364Z,0.92
2023-04-29T05:48:58.886Z,1.20
2023-04-29T05:51:25.466Z,1.31
2023-04-29T05:53:51.925Z,1.11
2023-04-29T05:56:18.413Z,1.09
2023-04-29T05:58:44.881Z,1.33
2023-04-29T06:01:11.374Z,1.29
2023-04-29T06:03:38.983Z,1.23
2023-04-29T06:06:05.789Z,1.35
2023-04-29T06:08:32.412Z,1.34
2023-04-29T06:10:58.942Z,1.11
2023-04-29T06:13:25.403Z,1.03
2023-04-29T06:15:51.966Z,1.17
2023-04-29T06:18:18.465Z,1.29
2023-04-29T06:20:44.950Z,1.33
2023-04-29T06:23:11.403Z,1.29
2023-04-29T06:25:37.859Z,1.47
2023-04-29T06:28:04.449Z,1.40
2023-04-29T06:30:31.120Z,1.24
2023-04-29T06:32:57.650Z,1.31
2023-04-29T06:35:24.199Z,1.13
2023-04-29T06:37:50.765Z,1.29
2023-04-29T06:40:17.287Z,1.65
2023-04-29T06:42:43.811Z,1.45
2023-04-29T06:45:10.633Z,1.20
2023-04-29T06:47:37.114Z,1.39
2023-04-29T06:50:03.717Z,1.51
2023-04-29T06:52:30.217Z,1.48
2023-04-29T06:54:56.689Z,1.47
2023-04-29T06:57:23.159Z,1.46
2023-04-29T06:59:49.705Z,1.49
2023-04-29T07:02:16.171Z,1.72
2023-04-29T07:04:42.714Z,1.87
2023-04-29T07:07:09.238Z,1.49
2023-04-29T07:09:35.679Z,1.27
2023-04-29T07:12:02.135Z,1.19
2023-04-29T07:14:28.740Z,1.29
2023-04-29T07:16:55.365Z,1.53
2023-04-29T07:19:21.991Z,1.34
2023-04-29T07:21:48.495Z,1.31
2023-04-29T07:24:14.990Z,1.67
2023-04-29T07:26:43.677Z,1.92
2023-04-29T07:29:10.248Z,1.90
2023-04-29T07:31:38.412Z,1.77
2023-04-29T07:34:05.132Z,1.85
2023-04-29T07:36:31.827Z,2.16
2023-04-29T07:38:58.367Z,2.55
2023-04-29T07:41:24.859Z,2.64
2023-04-29T07:43:51.339Z,1.95
2023-04-29T07:46:17.835Z,2.07
2023-04-29T07:48:44.306Z,1.93
2023-04-29T07:51:14.417Z,1.57
2023-04-29T07:53:41.459Z,2.93
2023-04-29T07:56:08.831Z,2.77
2023-04-29T07:58:35.692Z,2.19
2023-04-29T08:01:09.873Z,1.37
2023-04-29T08:03:41.215Z,1.03
2023-04-29T08:06:08.796Z,0.98
2023-04-29T08:08:35.497Z,0.90
2023-04-29T08:11:01.957Z,0.88
2023-04-29T08:13:28.430Z,1.27
2023-04-29T08:15:54.960Z,0.98
2023-04-29T08:18:21.427Z,0.95
2023-04-29T08:20:48.853Z,1.05
2023-04-29T08:23:18.471Z,0.98
2023-04-29T08:25:45.468Z,0.79
2023-04-29T08:28:11.955Z,0.81
2023-04-29T08:30:41.744Z,1.06
2023-04-29T08:33:09.142Z,1.10
2023-04-29T08:35:36.154Z,0.86
2023-04-29T08:38:03.017Z,0.72
2023-04-29T08:40:29.529Z,0.64
2023-04-29T08:42:58.349Z,0.94
2023-04-29T08:45:25.026Z,0.89
2023-04-29T08:47:53.089Z,0.85
2023-04-29T08:50:19.754Z,0.98
2023-04-29T08:52:46.313Z,1.08
2023-04-29T08:55:12.766Z,1.05
2023-04-29T08:57:43.089Z,1.17
2023-04-29T09:00:11.111Z,1.75
2023-04-29T09:02:44.823Z,1.33
2023-04-29T09:05:11.548Z,1.10
2023-04-29T09:07:39.114Z,0.88
2023-04-29T09:10:06.245Z,1.06
2023-04-29T09:12:32.777Z,1.54
2023-04-29T09:15:00.073Z,1.72
2023-04-29T09:17:46.941Z,1.84
2023-04-29T09:20:33.746Z,1.77
2023-04-29T09:23:02.578Z,1.58
2023-04-29T09:25:29.505Z,1.34
2023-04-29T09:27:56.114Z,1.36
2023-04-29T09:30:23.583Z,1.21
2023-04-29T09:33:08.584Z,1.15
2023-04-29T09:35:35.695Z,1.27
2023-04-29T09:38:13.462Z,1.14
2023-04-29T09:40:57.715Z,1.40
2023-04-29T09:43:25.824Z,1.54
2023-04-29T09:45:52.352Z,1.34
2023-04-29T09:48:18.906Z,1.44
2023-04-29T09:51:00.691Z,1.22
2023-04-29T09:53:31.169Z,1.35
2023-04-29T09:56:00.500Z,1.27
2023-04-29T09:58:33.015Z,1.25
2023-04-29T10:00:59.789Z,1.39
2023-04-29T10:03:32.864Z,1.18
2023-04-29T10:06:00.910Z,1.47
2023-04-29T10:08:29.316Z,0.85
2023-04-29T10:11:01.784Z,0.99
2023-04-29T10:13:29.125Z,0.84
2023-04-29T10:16:29.095Z,0.70
2023-04-29T10:19:00.629Z,0.66
2023-04-29T10:21:30.033Z,0.87
2023-04-29T10:23:58.944Z,0.73
2023-04-29T10:26:30.384Z,0.50
2023-04-29T10:28:58.302Z,0.63
2023-04-29T10:31:28.394Z,0.59
2023-04-29T10:33:56.961Z,0.65
2023-04-29T10:36:26.945Z,0.60
2023-04-29T10:38:58.278Z,0.93
2023-04-29T10:41:42.253Z,0.79
2023-04-29T10:44:11.551Z,0.57
2023-04-29T10:46:38.141Z,0.80
2023-04-29T10:49:06.349Z,0.87
2023-04-29T10:51:43.900Z,1.05
2023-04-29T10:54:17.973Z,1.10
2023-04-29T10:56:48.681Z,1.67
2023-04-29T10:59:19.795Z,1.38
2023-04-29T11:01:51.529Z,1.65
2023-04-29T11:04:22.523Z,1.58
2023-04-29T11:06:54.657Z,1.09
2023-04-29T11:09:26.236Z,1.23
2023-04-29T11:11:52.662Z,1.34
2023-04-29T11:14:24.559Z,1.41
2023-04-29T11:16:58.221Z,1.79
2023-04-29T11:19:30.261Z,1.63
2023-04-29T11:22:24.313Z,1.80
2023-04-29T11:24:57.477Z,1.66
2023-04-29T11:27:29.697Z,1.47
2023-04-29T11:29:57.847Z,2.17
2023-04-29T11:32:28.856Z,1.25
2023-04-29T11:35:07.266Z,1.11
2023-04-29T11:37:33.879Z,0.96
2023-04-29T11:40:00.434Z,0.99
2023-04-29T11:42:27.738Z,1.42
2023-04-29T11:44:55.267Z,0.83
2023-04-29T11:47:29.091Z,0.71
2023-04-29T11:50:09.574Z,1.23
2023-04-29T11:52:38.220Z,0.71
2023-04-29T11:55:05.367Z,0.89
2023-04-29T11:57:32.421Z,1.25
2023-04-29T11:59:59.326Z,0.90
2023-04-29T12:02:33.587Z,0.76
2023-04-29T12:05:06.903Z,0.69
2023-04-29T12:07:34.748Z,0.92
2023-04-29T12:10:01.217Z,0.95
2023-04-29T12:12:28.035Z,0.99
2023-04-29T12:14:55.407Z,0.80
2023-04-29T12:17:22.416Z,1.01
2023-04-29T12:19:49.807Z,1.14
2023-04-29T12:22:16.300Z,0.92
2023-04-29T12:24:42.780Z,0.75
2023-04-29T12:27:10.820Z,0.66
2023-04-29T12:29:38.309Z,0.91
2023-04-29T12:32:04.860Z,0.88
2023-04-29T12:34:33.031Z,0.98
2023-04-29T12:37:00.263Z,0.76
2023-04-29T12:39:30.194Z,0.88
2023-04-29T12:42:01.164Z,1.15
2023-04-29T12:44:35.451Z,0.96
2023-04-29T12:47:09.092Z,0.86
2023-04-29T12:49:36.450Z,1.09
2023-04-29T12:52:03.003Z,0.92
2023-04-29T12:54:30.046Z,0.91
2023-04-29T12:56:56.558Z,0.99
2023-04-29T12:59:23.102Z,0.89
2023-04-29T13:01:49.580Z,0.89
2023-04-29T13:04:16.276Z,0.99
2023-04-29T13:06:42.974Z,0.90
2023-04-29T13:09:10.796Z,0.97
2023-04-29T13:11:39.874Z,1.00
2023-04-29T13:14:06.977Z,0.91
2023-04-29T13:16:36.997Z,1.05
2023-04-29T13:19:13.017Z,0.83
2023-04-29T13:21:49.947Z,0.95
2023-04-29T13:24:16.448Z,1.29
2023-04-29T13:26:42.983Z,2.31
2023-04-29T13:29:09.909Z,1.27
2023-04-29T13:31:36.432Z,1.27
2023-04-29T13:34:03.023Z,1.08
2023-04-29T13:36:29.669Z,0.86
2023-04-29T13:38:56.127Z,0.84
2023-04-29T13:41:22.666Z,0.98
2023-04-29T13:43:50.798Z,0.85
2023-04-29T13:46:20.511Z,0.72
2023-04-29T13:51:56.231Z,1.05
2023-04-29T13:59:39.381Z,1.02
2023-04-29T14:04:18.315Z,0.71
2023-04-29T14:06:44.863Z,0.61
2023-04-29T14:09:11.410Z,1.06
2023-04-29T14:11:37.953Z,1.14
2023-04-29T14:14:04.501Z,0.97
2023-04-29T14:16:31.387Z,0.73
2023-04-29T14:18:57.909Z,0.80
2023-04-29T14:21:24.428Z,0.89
2023-04-29T14:23:50.929Z,0.83
2023-04-29T14:26:27.752Z,0.79
2023-04-29T14:28:55.855Z,0.80
2023-04-29T14:31:22.839Z,0.80
2023-04-29T14:33:49.368Z,0.90
2023-04-29T14:36:15.899Z,0.78
2023-04-29T14:38:42.461Z,0.77
2023-04-29T14:41:12.029Z,0.83
2023-04-29T14:43:38.527Z,0.82
2023-04-29T14:46:05.451Z,0.75
2023-04-29T14:48:32.025Z,0.64
2023-04-29T14:50:58.537Z,0.99
2023-04-29T14:53:25.028Z,0.82
2023-04-29T14:55:51.740Z,0.86
2023-04-29T14:58:18.245Z,0.79
2023-04-29T15:00:46.722Z,0.97
2023-04-29T15:03:21.527Z,0.74
2023-04-29T15:05:49.424Z,0.99
2023-04-29T15:08:16.026Z,0.95
2023-04-29T15:10:42.497Z,0.87
2023-04-29T15:13:09.046Z,0.85
2023-04-29T15:15:35.530Z,0.94
2023-04-29T15:18:02.126Z,0.97
2023-04-29T15:20:28.668Z,1.03
2023-04-29T15:22:55.141Z,1.09
2023-04-29T15:25:22.930Z,1.02
2023-04-29T15:27:50.845Z,1.03
2023-04-29T15:30:17.313Z,1.19
2023-04-29T15:32:43.856Z,1.17
2023-04-29T15:35:10.688Z,1.17
2023-04-29T15:37:37.229Z,1.13
2023-04-29T15:40:04.055Z,1.05
2023-04-29T15:42:30.641Z,1.04
2023-04-29T15:44:57.170Z,0.97
2023-04-29T15:47:23.754Z,1.01
2023-04-29T15:49:50.341Z,0.89
2023-04-29T15:52:16.892Z,1.07
2023-04-29T15:54:43.411Z,1.38
2023-04-29T15:57:10.011Z,1.41
2023-04-29T15:59:36.501Z,1.30
2023-04-29T16:02:03.033Z,1.27
2023-04-29T16:04:29.533Z,0.98
2023-04-29T16:06:56.044Z,0.98
2023-04-29T16:09:22.517Z,1.04
2023-04-29T16:11:49.113Z,0.97
2023-04-29T16:14:17.637Z,1.15
2023-04-29T16:16:44.201Z,0.94
2023-04-29T16:19:10.781Z,1.03
2023-04-29T16:21:37.316Z,1.06
2023-04-29T16:24:03.827Z,1.91
2023-04-29T16:26:30.408Z,1.21
2023-04-29T16:28:56.915Z,0.91
2023-04-29T16:31:23.436Z,1.04
2023-04-29T16:33:50.075Z,0.90
2023-04-29T16:36:16.568Z,1.08
2023-04-29T16:38:43.095Z,0.88
2023-04-29T16:41:09.700Z,0.94
2023-04-29T16:43:36.289Z,0.98
2023-04-29T16:46:03.302Z,0.93
2023-04-29T16:48:29.989Z,0.96
2023-04-29T16:50:56.557Z,1.00
2023-04-29T16:53:23.153Z,1.10
2023-04-29T16:55:49.687Z,1.35
2023-04-29T16:58:16.223Z,1.35
2023-04-29T17:00:43.764Z,0.93
2023-04-29T17:03:10.430Z,1.34
2023-04-29T17:05:37.702Z,1.38
2023-04-29T17:08:04.754Z,1.76
2023-04-29T17:10:31.319Z,2.13
2023-04-29T17:12:57.794Z,1.90
2023-04-29T17:15:24.291Z,1.80
2023-04-29T17:17:50.809Z,1.90
2023-04-29T17:20:17.354Z,1.51
2023-04-29T17:22:43.846Z,1.38
2023-04-29T17:25:10.574Z,1.35
2023-04-29T17:27:37.058Z,1.44
2023-04-29T17:30:04.121Z,1.57
2023-04-29T17:32:30.579Z,1.60
2023-04-29T17:34:57.083Z,1.53
2023-04-29T17:37:23.659Z,1.74
2023-04-29T17:39:51.278Z,1.72
2023-04-29T17:42:17.998Z,1.90
2023-04-29T17:44:44.599Z,2.03
2023-04-29T17:47:11.226Z,1.73
2023-04-29T17:49:37.904Z,1.30
2023-04-29T17:52:04.513Z,1.29
2023-04-29T17:54:31.048Z,1.81
2023-04-29T17:56:57.758Z,1.95
2023-04-29T17:59:24.475Z,1.65
2023-04-29T18:01:50.974Z,1.68
2023-04-29T18:04:17.506Z,1.68
2023-04-29T18:06:44.047Z,2.14
2023-04-29T18:09:10.627Z,2.58
2023-04-29T18:11:37.129Z,2.62
2023-04-29T18:14:03.641Z,2.26
2023-04-29T18:16:30.480Z,2.32
2023-04-29T18:18:57.263Z,2.09
2023-04-29T18:21:28.036Z,1.92
2023-04-29T18:23:55.852Z,2.03
2023-04-29T18:26:23.341Z,2.04
2023-04-29T18:28:50.303Z,2.10
2023-04-29T18:31:18.432Z,2.52
2023-04-29T18:33:45.196Z,2.70
2023-04-29T18:36:11.857Z,2.67
2023-04-29T18:38:38.382Z,2.85
2023-04-29T18:41:05.361Z,3.12
2023-04-29T18:43:31.946Z,2.80
2023-04-29T18:45:58.590Z,2.85
2023-04-29T18:48:25.222Z,3.43
2023-04-29T18:50:51.915Z,3.41
2023-04-29T18:53:19.042Z,3.15
2023-04-29T18:55:45.566Z,2.95
2023-04-29T18:58:12.446Z,3.03
2023-04-29T19:00:39.217Z,2.98
2023-04-29T19:03:05.812Z,3.11
2023-04-29T19:05:32.832Z,3.07
2023-04-29T19:07:59.394Z,3.14
2023-04-29T19:10:25.903Z,3.17
2023-04-29T19:12:52.355Z,3.08
2023-04-29T19:15:18.860Z,2.95
2023-04-29T19:17:58.507Z,2.79
2023-04-29T19:20:25.640Z,3.21
2023-04-29T19:23:31.098Z,3.13
2023-04-29T19:26:20.787Z,3.55
2023-04-29T19:28:50.047Z,3.79
2023-04-29T19:31:16.627Z,2.96
2023-04-29T19:33:43.205Z,2.84
2023-04-29T19:36:09.693Z,2.71
2023-04-29T19:38:36.224Z,2.61
2023-04-29T19:41:02.853Z,3.18
2023-04-29T19:43:29.431Z,3.07
2023-04-29T19:45:55.943Z,2.78
2023-04-29T19:48:22.484Z,2.39
2023-04-29T19:50:49.069Z,2.32
2023-04-29T19:53:15.529Z,2.31
2023-04-29T19:55:42.098Z,2.26
2023-04-29T19:58:08.615Z,2.21
2023-04-29T20:00:35.204Z,2.37
2023-04-29T20:03:02.758Z,2.41
2023-04-29T20:05:29.298Z,2.39
2023-04-29T20:07:55.980Z,2.47
2023-04-29T20:10:22.759Z,2.46
2023-04-29T20:12:49.409Z,2.67
2023-04-29T20:15:15.915Z,2.45
2023-04-29T20:17:42.488Z,2.48
2023-04-29T20:20:09.608Z,2.81
2023-04-29T20:22:36.473Z,2.59
2023-04-29T20:25:03.906Z,2.32
2023-04-29T20:27:30.362Z,2.38
2023-04-29T20:29:57.210Z,2.44
2023-04-29T20:32:24.070Z,2.28
2023-04-29T20:34:50.718Z,2.52
2023-04-29T20:37:17.213Z,2.57
2023-04-29T20:39:43.697Z,2.43
2023-04-29T20:42:10.194Z,2.44
2023-04-29T20:44:36.710Z,2.44
2023-04-29T20:47:03.266Z,2.48
2023-04-29T20:49:29.873Z,2.48
2023-04-29T20:51:56.390Z,2.51
2023-04-29T20:54:22.875Z,2.53
2023-04-29T20:56:49.408Z,2.43
2023-04-29T20:59:15.896Z,2.68
2023-04-29T21:01:42.481Z,2.55
2023-04-29T21:04:09.062Z,2.58
2023-04-29T21:06:35.760Z,2.90
2023-04-29T21:09:02.305Z,2.92
2023-04-29T21:11:28.805Z,2.99
2023-04-29T21:13:55.293Z,2.78
2023-04-29T21:16:21.906Z,2.63
2023-04-29T21:18:48.508Z,2.53
2023-04-29T21:21:14.978Z,2.91
2023-04-29T21:23:41.491Z,2.95
2023-04-29T21:26:08.028Z,2.78
2023-04-29T21:28:34.688Z,3.33
2023-04-29T21:31:01.207Z,3.83
2023-04-29T21:33:27.745Z,3.34
2023-04-29T21:35:54.246Z,3.30
2023-04-29T21:38:20.783Z,3.19
2023-04-29T21:40:48.158Z,3.35
2023-04-29T21:43:16.625Z,3.42
2023-04-29T21:45:44.789Z,3.68
2023-04-29T21:48:18.544Z,4.36
2023-04-29T21:50:45.672Z,3.59
2023-04-29T21:53:15.903Z,4.30
2023-04-29T21:55:52.214Z,3.85
2023-04-29T21:58:18.686Z,3.04
2023-04-29T22:00:45.153Z,3.15
2023-04-29T22:03:11.694Z,3.60
2023-04-29T22:05:38.301Z,3.25
2023-04-29T22:08:06.678Z,3.47
2023-04-29T22:10:33.317Z,3.55
2023-04-29T22:12:59.875Z,3.15
2023-04-29T22:15:28.747Z,3.39
2023-04-29T22:17:55.929Z,3.86
2023-04-29T22:20:25.935Z,4.11
2023-04-29T22:22:52.592Z,4.47
2023-04-29T22:25:19.401Z,3.92
2023-04-29T22:27:45.896Z,3.59
2023-04-29T22:30:12.494Z,3.53
2023-04-29T22:32:59.024Z,3.12
2023-04-29T22:35:25.559Z,3.09
2023-04-29T22:37:52.080Z,3.09
2023-04-29T22:40:21.002Z,2.69
2023-04-29T22:42:47.473Z,3.13
2023-04-29T22:45:13.951Z,3.25
2023-04-29T22:47:40.467Z,3.25
2023-04-29T22:50:07.389Z,3.84
2023-04-29T22:52:33.923Z,3.41
2023-04-29T22:55:00.532Z,3.31
2023-04-29T22:57:27.659Z,3.47
2023-04-29T22:59:55.661Z,3.79
2023-04-29T23:02:23.486Z,4.03
2023-04-29T23:04:50.048Z,4.03
2023-04-29T23:07:16.567Z,3.78
2023-04-29T23:09:43.024Z,4.09
2023-04-29T23:12:09.564Z,4.25
2023-04-29T23:14:36.067Z,3.75
2023-04-29T23:17:02.538Z,3.76
2023-04-29T23:19:28.998Z,4.33
2023-04-29T23:21:55.483Z,4.51
2023-04-29T23:24:22.023Z,4.19
2023-04-29T23:26:48.505Z,3.89
2023-04-29T23:29:15.164Z,3.92
2023-04-29T23:31:41.663Z,3.90
2023-04-29T23:34:08.173Z,4.30
2023-04-29T23:36:42.423Z,4.12
2023-04-29T23:39:08.895Z,4.42
2023-04-29T23:41:35.453Z,4.30
2023-04-29T23:44:01.937Z,4.92
2023-04-29T23:46:28.538Z,5.15
2023-04-29T23:48:55.079Z,5.15
2023-04-29T23:51:21.546Z,5.39
2023-04-29T23:53:48.039Z,5.25
2023-04-29T23:56:14.541Z,5.15
2023-04-29T23:58:41.077Z,5.24
